sensor_id;sensor_type;location;lat;lon;timestamp;pressure;altitude;pressure_sealevel;temperature;humidity
41218;BME280;26950;50.960;7.138;2023-05-16T00:01:07;100580.63;;;16.61;61.57
41218;BME280;26950;50.960;7.138;2023-05-16T00:03:33;100580.63;;;16.64;61.05
41218;BME280;26950;50.960;7.138;2023-05-16T00:06:01;100580.59;;;16.49;61.53
41218;BME280;26950;50.960;7.138;2023-05-16T00:08:27;100592.00;;;16.31;62.35
41218;BME280;26950;50.960;7.138;2023-05-16T00:10:55;100590.25;;;16.30;62.49
41218;BME280;26950;50.960;7.138;2023-05-16T00:13:21;100593.72;;;16.19;62.88
41218;BME280;26950;50.960;7.138;2023-05-16T00:15:50;100585.84;;;16.35;62.74
41218;BME280;26950;50.960;7.138;2023-05-16T00:18:17;100592.91;;;16.31;63.31
41218;BME280;26950;50.960;7.138;2023-05-16T00:20:43;100590.19;;;16.21;63.77
41218;BME280;26950;50.960;7.138;2023-05-16T00:23:10;100586.59;;;16.08;64.32
41218;BME280;26950;50.960;7.138;2023-05-16T00:25:37;100593.69;;;16.12;64.73
41218;BME280;26950;50.960;7.138;2023-05-16T00:28:05;100590.94;;;15.92;65.55
41218;BME280;26950;50.960;7.138;2023-05-16T00:30:32;100596.31;;;16.09;64.95
41218;BME280;26950;50.960;7.138;2023-05-16T00:32:58;100591.97;;;16.15;64.77
41218;BME280;26950;50.960;7.138;2023-05-16T00:35:26;100594.56;;;16.14;65.23
41218;BME280;26950;50.960;7.138;2023-05-16T00:37:53;100583.94;;;16.08;65.59
41218;BME280;26950;50.960;7.138;2023-05-16T00:40:20;100587.50;;;16.10;65.34
41218;BME280;26950;50.960;7.138;2023-05-16T00:42:46;100581.34;;;16.09;65.44
41218;BME280;26950;50.960;7.138;2023-05-16T00:45:14;100591.91;;;16.03;65.90
41218;BME280;26950;50.960;7.138;2023-05-16T00:47:41;100586.56;;;15.97;66.09
41218;BME280;26950;50.960;7.138;2023-05-16T00:50:08;100583.91;;;15.99;66.14
41218;BME280;26950;50.960;7.138;2023-05-16T00:52:35;100587.38;;;15.90;66.67
41218;BME280;26950;50.960;7.138;2023-05-16T00:55:02;100584.72;;;15.87;66.75
41218;BME280;26950;50.960;7.138;2023-05-16T00:57:29;100584.69;;;15.78;67.05
41218;BME280;26950;50.960;7.138;2023-05-16T00:59:56;100582.00;;;15.75;67.53
41218;BME280;26950;50.960;7.138;2023-05-16T01:02:24;100581.22;;;15.85;67.05
41218;BME280;26950;50.960;7.138;2023-05-16T01:04:53;100582.97;;;15.86;67.30
41218;BME280;26950;50.960;7.138;2023-05-16T01:07:20;100577.66;;;15.81;67.55
41218;BME280;26950;50.960;7.138;2023-05-16T01:09:47;100594.41;;;15.83;67.26
41218;BME280;26950;50.960;7.138;2023-05-16T01:12:18;100586.41;;;15.76;66.88
41218;BME280;26950;50.960;7.138;2023-05-16T01:14:53;100595.13;;;15.59;67.42
41218;BME280;26950;50.960;7.138;2023-05-16T01:17:28;100591.56;;;15.54;67.21
41218;BME280;26950;50.960;7.138;2023-05-16T01:20:01;100595.16;;;15.62;67.37
41218;BME280;26950;50.960;7.138;2023-05-16T01:22:40;100595.19;;;15.69;66.92
41218;BME280;26950;50.960;7.138;2023-05-16T01:25:21;100601.28;;;15.60;67.00
41218;BME280;26950;50.960;7.138;2023-05-16T01:27:54;100602.13;;;15.56;66.52
41218;BME280;26950;50.960;7.138;2023-05-16T01:30:20;100600.31;;;15.47;67.01
41218;BME280;26950;50.960;7.138;2023-05-16T01:32:47;100599.28;;;15.31;67.33
41218;BME280;26950;50.960;7.138;2023-05-16T01:35:15;100595.03;;;15.52;66.40
41218;BME280;26950;50.960;7.138;2023-05-16T01:37:47;100600.31;;;15.50;66.70
41218;BME280;26950;50.960;7.138;2023-05-16T01:40:28;100603.91;;;15.55;66.69
41218;BME280;26950;50.960;7.138;2023-05-16T01:42:58;100606.53;;;15.57;66.58
41218;BME280;26950;50.960;7.138;2023-05-16T01:45:31;100602.09;;;15.50;66.44
41218;BME280;26950;50.960;7.138;2023-05-16T01:48:04;100620.53;;;15.41;66.85
41218;BME280;26950;50.960;7.138;2023-05-16T01:50:38;100621.34;;;15.33;66.78
41218;BME280;26950;50.960;7.138;2023-05-16T01:53:12;100625.72;;;15.31;66.79
41218;BME280;26950;50.960;7.138;2023-05-16T01:55:43;100629.31;;;15.35;66.43
41218;BME280;26950;50.960;7.138;2023-05-16T01:58:13;100628.28;;;15.21;67.11
41218;BME280;26950;50.960;7.138;2023-05-16T02:00:40;100635.44;;;15.31;66.80
41218;BME280;26950;50.960;7.138;2023-05-16T02:03:07;100636.31;;;15.30;66.81
41218;BME280;26950;50.960;7.138;2023-05-16T02:05:34;100638.06;;;15.31;67.24
41218;BME280;26950;50.960;7.138;2023-05-16T02:08:00;100637.13;;;15.24;66.99
41218;BME280;26950;50.960;7.138;2023-05-16T02:10:27;100640.66;;;15.26;67.27
41218;BME280;26950;50.960;7.138;2023-05-16T02:12:53;100645.94;;;15.25;67.44
41218;BME280;26950;50.960;7.138;2023-05-16T02:15:21;100625.56;;;15.15;67.33
41218;BME280;26950;50.960;7.138;2023-05-16T02:17:48;100638.84;;;15.21;67.00
41218;BME280;26950;50.960;7.138;2023-05-16T02:20:14;100637.97;;;15.19;66.85
41218;BME280;26950;50.960;7.138;2023-05-16T02:22:41;100652.00;;;15.13;66.90
41218;BME280;26950;50.960;7.138;2023-05-16T02:25:08;100650.22;;;15.10;66.97
41218;BME280;26950;50.960;7.138;2023-05-16T02:27:35;100657.25;;;15.08;66.89
41218;BME280;26950;50.960;7.138;2023-05-16T02:30:02;100658.09;;;15.04;67.01
41218;BME280;26950;50.960;7.138;2023-05-16T02:32:31;100665.97;;;14.98;67.22
41218;BME280;26950;50.960;7.138;2023-05-16T02:34:58;100670.34;;;14.96;67.38
41218;BME280;26950;50.960;7.138;2023-05-16T02:37:24;100667.66;;;14.93;67.49
41218;BME280;26950;50.960;7.138;2023-05-16T02:39:51;100669.47;;;14.99;67.42
41218;BME280;26950;50.960;7.138;2023-05-16T02:42:17;100678.09;;;14.82;67.50
41218;BME280;26950;50.960;7.138;2023-05-16T02:44:43;100674.63;;;14.88;66.76
41218;BME280;26950;50.960;7.138;2023-05-16T02:47:10;100685.22;;;14.88;66.39
41218;BME280;26950;50.960;7.138;2023-05-16T02:49:38;100689.47;;;14.77;66.55
41218;BME280;26950;50.960;7.138;2023-05-16T02:52:05;100704.41;;;14.72;66.65
41218;BME280;26950;50.960;7.138;2023-05-16T02:54:31;100704.44;;;14.75;66.84
41218;BME280;26950;50.960;7.138;2023-05-16T02:56:58;100707.13;;;14.78;66.68
41218;BME280;26950;50.960;7.138;2023-05-16T02:59:25;100706.03;;;14.64;66.61
41218;BME280;26950;50.960;7.138;2023-05-16T03:01:51;100712.25;;;14.66;66.26
41218;BME280;26950;50.960;7.138;2023-05-16T03:04:18;100711.28;;;14.59;65.72
41218;BME280;26950;50.960;7.138;2023-05-16T03:06:45;100716.50;;;14.54;65.18
41218;BME280;26950;50.960;7.138;2023-05-16T03:09:12;100727.00;;;14.51;65.26
41218;BME280;26950;50.960;7.138;2023-05-16T03:11:38;100726.97;;;14.47;65.52
41218;BME280;26950;50.960;7.138;2023-05-16T03:14:05;100729.31;;;14.30;65.77
41218;BME280;26950;50.960;7.138;2023-05-16T03:16:32;100740.84;;;14.35;65.13
41218;BME280;26950;50.960;7.138;2023-05-16T03:19:00;100730.31;;;14.38;65.22
41218;BME280;26950;50.960;7.138;2023-05-16T03:21:27;100741.66;;;14.32;65.11
41218;BME280;26950;50.960;7.138;2023-05-16T03:23:55;100736.19;;;14.19;64.93
41218;BME280;26950;50.960;7.138;2023-05-16T03:26:22;100738.72;;;14.13;65.22
41218;BME280;26950;50.960;7.138;2023-05-16T03:28:48;100740.38;;;14.03;64.60
41218;BME280;26950;50.960;7.138;2023-05-16T03:31:16;100741.84;;;13.87;64.09
41218;BME280;26950;50.960;7.138;2023-05-16T03:33:42;100741.75;;;13.83;63.49
41218;BME280;26950;50.960;7.138;2023-05-16T03:36:09;100748.00;;;13.86;62.78
41218;BME280;26950;50.960;7.138;2023-05-16T03:38:36;100746.09;;;13.77;63.37
41218;BME280;26950;50.960;7.138;2023-05-16T03:41:04;100749.63;;;13.78;63.54
41218;BME280;26950;50.960;7.138;2023-05-16T03:43:30;100748.75;;;13.77;63.40
41218;BME280;26950;50.960;7.138;2023-05-16T03:45:57;100760.22;;;13.81;63.73
41218;BME280;26950;50.960;7.138;2023-05-16T03:48:23;100760.28;;;13.84;63.51
41218;BME280;26950;50.960;7.138;2023-05-16T03:50:50;100760.28;;;13.86;63.63
41218;BME280;26950;50.960;7.138;2023-05-16T03:53:16;100767.31;;;13.85;63.66
41218;BME280;26950;50.960;7.138;2023-05-16T03:55:43;100767.38;;;13.88;63.63
41218;BME280;26950;50.960;7.138;2023-05-16T03:58:11;100770.97;;;13.93;63.78
41218;BME280;26950;50.960;7.138;2023-05-16T04:00:37;100771.91;;;13.95;63.65
41218;BME280;26950;50.960;7.138;2023-05-16T04:03:04;100777.19;;;13.95;63.56
41218;BME280;26950;50.960;7.138;2023-05-16T04:05:30;100786.88;;;13.96;63.99
41218;BME280;26950;50.960;7.138;2023-05-16T04:07:57;100786.03;;;14.00;63.75
41218;BME280;26950;50.960;7.138;2023-05-16T04:10:23;100787.88;;;14.04;63.68
41218;BME280;26950;50.960;7.138;2023-05-16T04:12:50;100790.44;;;14.01;63.99
41218;BME280;26950;50.960;7.138;2023-05-16T04:15:18;100798.31;;;13.98;64.15
41218;BME280;26950;50.960;7.138;2023-05-16T04:17:45;100795.69;;;13.98;64.16
41218;BME280;26950;50.960;7.138;2023-05-16T04:20:11;100794.84;;;14.01;64.14
41218;BME280;26950;50.960;7.138;2023-05-16T04:22:37;100795.59;;;13.94;64.29
41218;BME280;26950;50.960;7.138;2023-05-16T04:25:05;100797.31;;;13.90;64.89
41218;BME280;26950;50.960;7.138;2023-05-16T04:27:31;100794.59;;;13.86;64.94
41218;BME280;26950;50.960;7.138;2023-05-16T04:29:58;100800.63;;;13.79;65.62
41218;BME280;26950;50.960;7.138;2023-05-16T04:32:26;100806.00;;;13.83;65.63
41218;BME280;26950;50.960;7.138;2023-05-16T04:34:53;100806.81;;;13.82;65.83
41218;BME280;26950;50.960;7.138;2023-05-16T04:37:19;100814.69;;;13.77;65.16
41218;BME280;26950;50.960;7.138;2023-05-16T04:39:46;100823.38;;;13.72;65.46
41218;BME280;26950;50.960;7.138;2023-05-16T04:42:12;100828.72;;;13.76;65.82
41218;BME280;26950;50.960;7.138;2023-05-16T04:44:39;100827.00;;;13.79;65.64
41218;BME280;26950;50.960;7.138;2023-05-16T04:47:06;100826.25;;;13.86;65.18
41218;BME280;26950;50.960;7.138;2023-05-16T04:49:34;100835.16;;;13.92;64.84
41218;BME280;26950;50.960;7.138;2023-05-16T04:52:00;100836.53;;;13.70;64.95
41218;BME280;26950;50.960;7.138;2023-05-16T04:54:27;100827.75;;;13.71;64.79
41218;BME280;26950;50.960;7.138;2023-05-16T04:56:53;100841.97;;;13.80;64.67
41218;BME280;26950;50.960;7.138;2023-05-16T04:59:21;100842.81;;;13.79;64.56
41218;BME280;26950;50.960;7.138;2023-05-16T05:01:47;100856.81;;;13.76;64.70
41218;BME280;26950;50.960;7.138;2023-05-16T05:04:14;100856.00;;;13.77;64.98
41218;BME280;26950;50.960;7.138;2023-05-16T05:06:43;100864.72;;;13.74;64.72
41218;BME280;26950;50.960;7.138;2023-05-16T05:09:09;100868.19;;;13.70;64.61
41218;BME280;26950;50.960;7.138;2023-05-16T05:11:36;100876.03;;;13.69;64.94
41218;BME280;26950;50.960;7.138;2023-05-16T05:14:02;100869.94;;;13.71;65.16
41218;BME280;26950;50.960;7.138;2023-05-16T05:16:29;100876.22;;;13.76;64.69
41218;BME280;26950;50.960;7.138;2023-05-16T05:18:55;100878.03;;;13.82;64.66
41218;BME280;26950;50.960;7.138;2023-05-16T05:21:22;100886.78;;;13.78;64.15
41218;BME280;26950;50.960;7.138;2023-05-16T05:23:50;100886.72;;;13.75;64.35
41218;BME280;26950;50.960;7.138;2023-05-16T05:26:17;100888.19;;;13.59;64.55
41218;BME280;26950;50.960;7.138;2023-05-16T05:28:43;100891.69;;;13.60;63.31
41218;BME280;26950;50.960;7.138;2023-05-16T05:31:10;100896.84;;;13.54;62.11
41218;BME280;26950;50.960;7.138;2023-05-16T05:33:36;100899.38;;;13.49;62.55
41218;BME280;26950;50.960;7.138;2023-05-16T05:36:04;100901.38;;;13.61;61.57
41218;BME280;26950;50.960;7.138;2023-05-16T05:38:30;100905.91;;;13.68;62.07
41218;BME280;26950;50.960;7.138;2023-05-16T05:40:58;100907.63;;;13.64;61.62
41218;BME280;26950;50.960;7.138;2023-05-16T05:43:25;100917.44;;;13.73;61.42
41218;BME280;26950;50.960;7.138;2023-05-16T05:45:51;100914.03;;;13.79;60.64
41218;BME280;26950;50.960;7.138;2023-05-16T05:48:18;100924.75;;;13.86;60.95
41218;BME280;26950;50.960;7.138;2023-05-16T05:50:44;100923.75;;;13.81;60.12
41218;BME280;26950;50.960;7.138;2023-05-16T05:53:11;100931.69;;;13.83;60.44
41218;BME280;26950;50.960;7.138;2023-05-16T05:55:38;100922.75;;;13.74;60.58
41218;BME280;26950;50.960;7.138;2023-05-16T05:58:07;100931.41;;;13.67;59.96
41218;BME280;26950;50.960;7.138;2023-05-16T06:00:34;100928.53;;;13.57;60.06
41218;BME280;26950;50.960;7.138;2023-05-16T06:03:00;100929.72;;;13.71;60.54
41218;BME280;26950;50.960;7.138;2023-05-16T06:05:27;100936.69;;;13.69;60.63
41218;BME280;26950;50.960;7.138;2023-05-16T06:07:53;100945.47;;;13.68;60.17
41218;BME280;26950;50.960;7.138;2023-05-16T06:10:20;100941.16;;;13.71;59.78
41218;BME280;26950;50.960;7.138;2023-05-16T06:12:46;100942.94;;;13.72;59.74
41218;BME280;26950;50.960;7.138;2023-05-16T06:15:14;100952.72;;;13.78;59.45
41218;BME280;26950;50.960;7.138;2023-05-16T06:17:40;100959.56;;;13.70;59.35
41218;BME280;26950;50.960;7.138;2023-05-16T06:20:07;100951.78;;;13.76;59.91
41218;BME280;26950;50.960;7.138;2023-05-16T06:22:34;100959.78;;;13.79;60.56
41218;BME280;26950;50.960;7.138;2023-05-16T06:25:00;100958.88;;;13.79;60.21
41218;BME280;26950;50.960;7.138;2023-05-16T06:27:27;100969.59;;;13.86;60.78
41218;BME280;26950;50.960;7.138;2023-05-16T06:29:53;100977.66;;;13.94;59.19
41218;BME280;26950;50.960;7.138;2023-05-16T06:32:21;100965.66;;;14.10;59.07
41218;BME280;26950;50.960;7.138;2023-05-16T06:34:48;100962.13;;;14.09;58.72
41218;BME280;26950;50.960;7.138;2023-05-16T06:37:15;100971.31;;;14.31;59.37
41218;BME280;26950;50.960;7.138;2023-05-16T06:39:41;100960.84;;;14.34;58.62
41218;BME280;26950;50.960;7.138;2023-05-16T06:42:08;100969.56;;;14.31;57.42
41218;BME280;26950;50.960;7.138;2023-05-16T06:44:35;100968.44;;;14.19;58.29
41218;BME280;26950;50.960;7.138;2023-05-16T06:47:01;100965.28;;;14.38;57.81
41218;BME280;26950;50.960;7.138;2023-05-16T06:49:29;100971.59;;;13.99;59.52
41218;BME280;26950;50.960;7.138;2023-05-16T06:51:56;100973.28;;;14.43;57.89
41218;BME280;26950;50.960;7.138;2023-05-16T06:54:22;100971.81;;;14.57;56.30
41218;BME280;26950;50.960;7.138;2023-05-16T06:56:48;100976.50;;;14.73;55.89
41218;BME280;26950;50.960;7.138;2023-05-16T06:59:15;100976.59;;;14.79;55.83
41218;BME280;26950;50.960;7.138;2023-05-16T07:01:42;100976.88;;;14.96;54.61
41218;BME280;26950;50.960;7.138;2023-05-16T07:04:08;100972.63;;;15.06;53.96
41218;BME280;26950;50.960;7.138;2023-05-16T07:06:36;100972.00;;;15.24;53.48
41218;BME280;26950;50.960;7.138;2023-05-16T07:09:03;100988.03;;;15.36;53.43
41218;BME280;26950;50.960;7.138;2023-05-16T07:11:29;100989.97;;;15.46;52.55
41218;BME280;26950;50.960;7.138;2023-05-16T07:13:56;100985.94;;;15.74;50.25
41218;BME280;26950;50.960;7.138;2023-05-16T07:16:22;100986.91;;;15.79;49.36
41218;BME280;26950;50.960;7.138;2023-05-16T07:18:52;100984.63;;;16.10;48.76
41218;BME280;26950;50.960;7.138;2023-05-16T07:21:19;100977.50;;;16.97;46.28
41218;BME280;26950;50.960;7.138;2023-05-16T07:23:46;100982.06;;;17.18;46.37
41218;BME280;26950;50.960;7.138;2023-05-16T07:26:13;100973.28;;;17.25;46.08
41218;BME280;26950;50.960;7.138;2023-05-16T07:28:40;100978.50;;;17.10;46.18
41218;BME280;26950;50.960;7.138;2023-05-16T07:31:06;100978.31;;;16.90;46.75
41218;BME280;26950;50.960;7.138;2023-05-16T07:33:33;100986.91;;;16.64;47.24
41218;BME280;26950;50.960;7.138;2023-05-16T07:35:59;100991.31;;;16.62;45.17
41218;BME280;26950;50.960;7.138;2023-05-16T07:38:26;100997.88;;;16.14;45.32
41218;BME280;26950;50.960;7.138;2023-05-16T07:40:54;100990.81;;;16.10;45.49
41218;BME280;26950;50.960;7.138;2023-05-16T07:43:20;101008.19;;;15.90;45.31
41218;BME280;26950;50.960;7.138;2023-05-16T07:45:47;101002.63;;;15.67;46.74
41218;BME280;26950;50.960;7.138;2023-05-16T07:48:13;101001.19;;;15.94;46.16
41218;BME280;26950;50.960;7.138;2023-05-16T07:50:39;100992.97;;;16.51;45.85
41218;BME280;26950;50.960;7.138;2023-05-16T07:53:06;100992.16;;;16.58;44.59
41218;BME280;26950;50.960;7.138;2023-05-16T07:55:32;100998.44;;;16.66;44.24
41218;BME280;26950;50.960;7.138;2023-05-16T07:58:00;101006.00;;;16.28;44.58
41218;BME280;26950;50.960;7.138;2023-05-16T08:00:27;100992.06;;;16.48;44.09
41218;BME280;26950;50.960;7.138;2023-05-16T08:02:54;101006.97;;;16.39;44.12
41218;BME280;26950;50.960;7.138;2023-05-16T08:05:20;100999.75;;;16.23;44.68
41218;BME280;26950;50.960;7.138;2023-05-16T08:07:47;101013.69;;;16.07;43.97
41218;BME280;26950;50.960;7.138;2023-05-16T08:10:13;101008.22;;;15.91;44.23
41218;BME280;26950;50.960;7.138;2023-05-16T08:12:40;101009.75;;;15.73;44.62
41218;BME280;26950;50.960;7.138;2023-05-16T08:15:09;101003.38;;;15.61;44.35
41218;BME280;26950;50.960;7.138;2023-05-16T08:17:36;101003.59;;;15.77;44.57
41218;BME280;26950;50.960;7.138;2023-05-16T08:20:03;101005.16;;;16.32;43.91
41218;BME280;26950;50.960;7.138;2023-05-16T08:22:30;101006.97;;;16.35;43.64
41218;BME280;26950;50.960;7.138;2023-05-16T08:24:57;101015.38;;;16.00;42.72
41218;BME280;26950;50.960;7.138;2023-05-16T08:27:25;101010.09;;;16.00;44.85
41218;BME280;26950;50.960;7.138;2023-05-16T08:29:51;101003.16;;;16.13;43.07
41218;BME280;26950;50.960;7.138;2023-05-16T08:32:20;101010.38;;;16.25;42.95
41218;BME280;26950;50.960;7.138;2023-05-16T08:34:46;101002.84;;;16.67;42.79
41218;BME280;26950;50.960;7.138;2023-05-16T08:37:13;101001.38;;;16.98;42.23
41218;BME280;26950;50.960;7.138;2023-05-16T08:39:39;100997.31;;;17.52;40.01
41218;BME280;26950;50.960;7.138;2023-05-16T08:42:06;100998.34;;;17.74;39.06
41218;BME280;26950;50.960;7.138;2023-05-16T08:44:33;100997.41;;;17.69;39.30
41218;BME280;26950;50.960;7.138;2023-05-16T08:47:05;101001.72;;;17.52;38.11
41218;BME280;26950;50.960;7.138;2023-05-16T08:49:35;100999.00;;;17.37;37.67
41218;BME280;26950;50.960;7.138;2023-05-16T08:52:04;100984.97;;;17.64;38.11
41218;BME280;26950;50.960;7.138;2023-05-16T08:54:32;100994.69;;;17.57;39.18
41218;BME280;26950;50.960;7.138;2023-05-16T08:57:00;100992.06;;;17.60;38.47
41218;BME280;26950;50.960;7.138;2023-05-16T08:59:27;100986.72;;;17.54;37.76
41218;BME280;26950;50.960;7.138;2023-05-16T09:01:54;100983.94;;;17.30;37.12
41218;BME280;26950;50.960;7.138;2023-05-16T09:04:20;100981.28;;;17.34;38.08
41218;BME280;26950;50.960;7.138;2023-05-16T09:06:51;100984.88;;;17.42;37.52
41218;BME280;26950;50.960;7.138;2023-05-16T09:09:17;100984.25;;;17.86;36.74
41218;BME280;26950;50.960;7.138;2023-05-16T09:11:44;100986.97;;;18.15;36.37
41218;BME280;26950;50.960;7.138;2023-05-16T09:14:10;100980.75;;;17.99;37.35
41218;BME280;26950;50.960;7.138;2023-05-16T09:16:37;100983.38;;;17.96;37.60
41218;BME280;26950;50.960;7.138;2023-05-16T09:19:04;100985.06;;;17.76;37.58
41218;BME280;26950;50.960;7.138;2023-05-16T09:21:31;100996.41;;;17.53;37.51
41218;BME280;26950;50.960;7.138;2023-05-16T09:24:02;100997.09;;;17.19;37.98
41218;BME280;26950;50.960;7.138;2023-05-16T09:26:30;100992.69;;;17.21;37.95
41218;BME280;26950;50.960;7.138;2023-05-16T09:28:57;100995.34;;;17.19;38.45
41218;BME280;26950;50.960;7.138;2023-05-16T09:31:25;100985.56;;;17.14;39.08
41218;BME280;26950;50.960;7.138;2023-05-16T09:33:55;100987.34;;;17.13;38.07
41218;BME280;26950;50.960;7.138;2023-05-16T09:36:21;100991.66;;;16.99;38.14
41218;BME280;26950;50.960;7.138;2023-05-16T09:38:49;100990.72;;;16.92;38.74
41218;BME280;26950;50.960;7.138;2023-05-16T09:41:17;100988.19;;;17.06;38.27
41218;BME280;26950;50.960;7.138;2023-05-16T09:43:44;100983.72;;;17.02;38.17
41218;BME280;26950;50.960;7.138;2023-05-16T09:46:12;100987.53;;;17.47;37.85
41218;BME280;26950;50.960;7.138;2023-05-16T09:48:40;100985.84;;;17.58;37.76
41218;BME280;26950;50.960;7.138;2023-05-16T09:51:07;100986.69;;;17.51;38.25
41218;BME280;26950;50.960;7.138;2023-05-16T09:53:33;100995.53;;;17.50;37.90
41218;BME280;26950;50.960;7.138;2023-05-16T09:56:01;100993.84;;;17.64;38.13
41218;BME280;26950;50.960;7.138;2023-05-16T09:58:30;100996.25;;;17.27;38.37
41218;BME280;26950;50.960;7.138;2023-05-16T10:00:57;100990.84;;;17.09;38.92
41218;BME280;26950;50.960;7.138;2023-05-16T10:03:25;100992.75;;;17.30;38.67
41218;BME280;26950;50.960;7.138;2023-05-16T10:05:52;100998.03;;;17.25;37.92
41218;BME280;26950;50.960;7.138;2023-05-16T10:08:20;100983.81;;;17.10;38.06
41218;BME280;26950;50.960;7.138;2023-05-16T10:10:49;100993.53;;;17.14;38.53
41218;BME280;26950;50.960;7.138;2023-05-16T10:13:17;100992.88;;;17.50;38.16
41218;BME280;26950;50.960;7.138;2023-05-16T10:15:46;100993.97;;;17.86;37.69
41218;BME280;26950;50.960;7.138;2023-05-16T10:18:13;101000.25;;;18.08;37.56
41218;BME280;26950;50.960;7.138;2023-05-16T10:20:43;100996.69;;;18.02;35.61
41218;BME280;26950;50.960;7.138;2023-05-16T10:23:16;100988.72;;;18.10;36.22
41218;BME280;26950;50.960;7.138;2023-05-16T10:25:43;100990.59;;;18.42;35.63
41218;BME280;26950;50.960;7.138;2023-05-16T10:28:10;100979.09;;;18.55;35.06
41218;BME280;26950;50.960;7.138;2023-05-16T10:30:40;100986.19;;;18.50;35.22
41218;BME280;26950;50.960;7.138;2023-05-16T10:33:10;100988.81;;;18.31;35.34
41218;BME280;26950;50.960;7.138;2023-05-16T10:35:37;100989.59;;;18.00;36.09
41218;BME280;26950;50.960;7.138;2023-05-16T10:38:05;100988.72;;;18.01;36.12
41218;BME280;26950;50.960;7.138;2023-05-16T10:40:34;100996.66;;;17.92;36.08
41218;BME280;26950;50.960;7.138;2023-05-16T10:43:02;100982.63;;;18.36;35.61
41218;BME280;26950;50.960;7.138;2023-05-16T10:45:29;100976.47;;;18.95;34.74
41218;BME280;26950;50.960;7.138;2023-05-16T10:47:57;100975.50;;;19.29;33.77
41218;BME280;26950;50.960;7.138;2023-05-16T10:50:36;100971.94;;;19.55;33.52
41218;BME280;26950;50.960;7.138;2023-05-16T10:53:13;100977.28;;;19.38;33.51
41218;BME280;26950;50.960;7.138;2023-05-16T10:55:43;100974.69;;;19.03;32.84
41218;BME280;26950;50.960;7.138;2023-05-16T10:58:10;100976.47;;;18.85;33.17
41218;BME280;26950;50.960;7.138;2023-05-16T11:00:38;100972.00;;;18.62;33.82
41218;BME280;26950;50.960;7.138;2023-05-16T11:03:05;100978.19;;;18.59;34.18
41218;BME280;26950;50.960;7.138;2023-05-16T11:05:50;100979.97;;;18.66;33.99
41218;BME280;26950;50.960;7.138;2023-05-16T11:08:18;100976.44;;;18.63;34.33
41218;BME280;26950;50.960;7.138;2023-05-16T11:10:44;100979.94;;;18.32;33.84
41218;BME280;26950;50.960;7.138;2023-05-16T11:13:11;100977.34;;;18.71;34.34
41218;BME280;26950;50.960;7.138;2023-05-16T11:15:40;100988.88;;;19.17;33.72
41218;BME280;26950;50.960;7.138;2023-05-16T11:18:08;100977.31;;;19.36;33.23
41218;BME280;26950;50.960;7.138;2023-05-16T11:20:36;100974.63;;;19.36;33.46
41218;BME280;26950;50.960;7.138;2023-05-16T11:23:25;100973.72;;;19.39;33.80
41218;BME280;26950;50.960;7.138;2023-05-16T11:25:53;100981.69;;;19.68;33.32
41218;BME280;26950;50.960;7.138;2023-05-16T11:28:21;100978.13;;;19.60;33.25
41218;BME280;26950;50.960;7.138;2023-05-16T11:30:50;100971.88;;;19.75;32.29
41218;BME280;26950;50.960;7.138;2023-05-16T11:33:19;100970.16;;;19.63;32.08
41218;BME280;26950;50.960;7.138;2023-05-16T11:35:59;100970.16;;;19.52;32.97
41218;BME280;26950;50.960;7.138;2023-05-16T11:38:29;100980.81;;;19.41;33.66
41218;BME280;26950;50.960;7.138;2023-05-16T11:41:00;100977.25;;;19.59;32.69
41218;BME280;26950;50.960;7.138;2023-05-16T11:43:27;100973.72;;;19.42;32.95
41218;BME280;26950;50.960;7.138;2023-05-16T11:45:53;100976.44;;;19.21;32.64
41218;BME280;26950;50.960;7.138;2023-05-16T11:48:22;100988.00;;;19.01;33.47
41218;BME280;26950;50.960;7.138;2023-05-16T11:50:49;100987.06;;;18.64;33.94
41218;BME280;26950;50.960;7.138;2023-05-16T11:53:17;100989.72;;;18.56;33.90
41218;BME280;26950;50.960;7.138;2023-05-16T11:55:45;100999.47;;;18.51;34.68
41218;BME280;26950;50.960;7.138;2023-05-16T11:58:16;100995.00;;;18.33;34.91
41218;BME280;26950;50.960;7.138;2023-05-16T12:00:46;101006.50;;;18.26;35.15
41218;BME280;26950;50.960;7.138;2023-05-16T12:03:13;101002.91;;;18.14;35.02
41218;BME280;26950;50.960;7.138;2023-05-16T12:05:48;101003.81;;;18.17;35.22
41218;BME280;26950;50.960;7.138;2023-05-16T12:08:15;100994.09;;;18.28;35.24
41218;BME280;26950;50.960;7.138;2023-05-16T12:10:41;100995.91;;;18.37;35.91
41218;BME280;26950;50.960;7.138;2023-05-16T12:13:09;100996.78;;;18.45;35.95
41218;BME280;26950;50.960;7.138;2023-05-16T12:15:36;100999.44;;;18.44;35.59
41218;BME280;26950;50.960;7.138;2023-05-16T12:18:02;100995.91;;;18.48;36.20
41218;BME280;26950;50.960;7.138;2023-05-16T12:20:29;100996.78;;;18.53;35.82
41218;BME280;26950;50.960;7.138;2023-05-16T12:22:56;100993.25;;;18.42;38.55
41218;BME280;26950;50.960;7.138;2023-05-16T12:25:25;100999.41;;;18.25;39.05
41218;BME280;26950;50.960;7.138;2023-05-16T12:27:52;100993.22;;;18.31;45.14
41218;BME280;26950;50.960;7.138;2023-05-16T12:30:22;100999.34;;;18.10;41.27
41218;BME280;26950;50.960;7.138;2023-05-16T12:32:54;100982.50;;;18.02;40.67
41218;BME280;26950;50.960;7.138;2023-05-16T12:35:21;100989.59;;;18.03;43.26
41218;BME280;26950;50.960;7.138;2023-05-16T12:37:48;100992.19;;;17.85;41.95
41218;BME280;26950;50.960;7.138;2023-05-16T12:40:14;100983.31;;;17.76;41.28
41218;BME280;26950;50.960;7.138;2023-05-16T12:42:42;100981.47;;;17.69;41.81
41218;BME280;26950;50.960;7.138;2023-05-16T12:45:13;100967.41;;;17.79;45.26
41218;BME280;26950;50.960;7.138;2023-05-16T12:47:42;100979.75;;;17.71;42.84
41218;BME280;26950;50.960;7.138;2023-05-16T12:50:09;100981.47;;;17.69;43.56
41218;BME280;26950;50.960;7.138;2023-05-16T12:52:45;100983.19;;;17.55;43.68